sensor_id;sensor_type;location;lat;lon;timestamp;pressure;altitude;pressure_sealevel;temperature;humidity
76794;BME280;65745;50.278;18.192;2023-07-08T00:01:19;100315.61;;;13.65;69.24
76794;BME280;65745;50.278;18.192;2023-07-08T00:03:51;100316.20;;;13.70;69.78
76794;BME280;65745;50.278;18.192;2023-07-08T00:06:26;100315.20;;;13.72;69.93
76794;BME280;65745;50.278;18.192;2023-07-08T00:08:59;100310.43;;;13.78;69.37
76794;BME280;65745;50.278;18.192;2023-07-08T00:11:31;100314.00;;;13.74;71.25
76794;BME280;65745;50.278;18.192;2023-07-08T00:14:03;100313.75;;;13.56;69.43
76794;BME280;65745;50.278;18.192;2023-07-08T00:16:36;100312.15;;;13.53;68.71
76794;BME280;65745;50.278;18.192;2023-07-08T00:19:10;100315.52;;;13.47;71.28
76794;BME280;65745;50.278;18.192;2023-07-08T00:21:43;100310.56;;;13.38;70.37
76794;BME280;65745;50.278;18.192;2023-07-08T00:24:15;100309.27;;;13.34;69.62
76794;BME280;65745;50.278;18.192;2023-07-08T00:26:47;100314.33;;;13.37;69.43
76794;BME280;65745;50.278;18.192;2023-07-08T00:29:19;100314.15;;;13.36;69.43
76794;BME280;65745;50.278;18.192;2023-07-08T00:31:51;100314.92;;;13.30;69.13
76794;BME280;65745;50.278;18.192;2023-07-08T00:34:23;100314.92;;;13.30;69.25
76794;BME280;65745;50.278;18.192;2023-07-08T00:36:55;100309.17;;;13.28;69.13
76794;BME280;65745;50.278;18.192;2023-07-08T00:39:27;100317.07;;;13.24;69.25
76794;BME280;65745;50.278;18.192;2023-07-08T00:42:01;100317.55;;;13.22;69.51
76794;BME280;65745;50.278;18.192;2023-07-08T00:44:34;100313.92;;;13.21;69.16
76794;BME280;65745;50.278;18.192;2023-07-08T00:47:11;100311.66;;;13.10;72.67
76794;BME280;65745;50.278;18.192;2023-07-08T00:49:47;100309.55;;;12.89;72.35
76794;BME280;65745;50.278;18.192;2023-07-08T00:52:24;100306.54;;;12.95;70.86
76794;BME280;65745;50.278;18.192;2023-07-08T00:54:59;100304.91;;;13.01;71.36
76794;BME280;65745;50.278;18.192;2023-07-08T00:57:35;100308.20;;;13.02;70.74
76794;BME280;65745;50.278;18.192;2023-07-08T01:00:14;100309.40;;;13.02;70.85
76794;BME280;65745;50.278;18.192;2023-07-08T01:02:54;100304.76;;;12.92;71.92
76794;BME280;65745;50.278;18.192;2023-07-08T01:05:28;100303.71;;;12.91;71.16
76794;BME280;65745;50.278;18.192;2023-07-08T01:08:04;100304.00;;;12.88;70.44
76794;BME280;65745;50.278;18.192;2023-07-08T01:10:41;100301.27;;;12.90;71.02
76794;BME280;65745;50.278;18.192;2023-07-08T01:13:16;100304.59;;;12.82;72.56
76794;BME280;65745;50.278;18.192;2023-07-08T01:15:49;100305.73;;;12.69;73.50
76794;BME280;65745;50.278;18.192;2023-07-08T01:18:22;100303.21;;;12.73;72.00
76794;BME280;65745;50.278;18.192;2023-07-08T01:20:59;100305.05;;;12.69;72.03
76794;BME280;65745;50.278;18.192;2023-07-08T01:23:32;100302.23;;;12.66;71.17
76794;BME280;65745;50.278;18.192;2023-07-08T01:26:04;100300.75;;;12.70;71.13
76794;BME280;65745;50.278;18.192;2023-07-08T01:28:36;100293.50;;;12.71;71.44
76794;BME280;65745;50.278;18.192;2023-07-08T01:31:08;100294.37;;;12.71;71.25
76794;BME280;65745;50.278;18.192;2023-07-08T01:33:41;100291.13;;;12.73;70.92
76794;BME280;65745;50.278;18.192;2023-07-08T01:36:13;100293.66;;;12.80;70.97
76794;BME280;65745;50.278;18.192;2023-07-08T01:38:46;100297.39;;;12.85;71.09
76794;BME280;65745;50.278;18.192;2023-07-08T01:41:18;100303.51;;;12.89;71.20
76794;BME280;65745;50.278;18.192;2023-07-08T01:43:50;100299.52;;;12.88;71.00
76794;BME280;65745;50.278;18.192;2023-07-08T01:46:24;100297.16;;;12.83;70.92
76794;BME280;65745;50.278;18.192;2023-07-08T01:48:59;100301.59;;;12.78;70.49
76794;BME280;65745;50.278;18.192;2023-07-08T01:51:33;100300.08;;;12.71;70.39
76794;BME280;65745;50.278;18.192;2023-07-08T01:54:05;100298.83;;;12.68;70.43
76794;BME280;65745;50.278;18.192;2023-07-08T01:56:37;100300.48;;;12.64;70.21
76794;BME280;65745;50.278;18.192;2023-07-08T01:59:09;100297.44;;;12.59;70.17
76794;BME280;65745;50.278;18.192;2023-07-08T02:01:41;100298.40;;;12.55;70.30
76794;BME280;65745;50.278;18.192;2023-07-08T02:04:13;100295.52;;;12.48;72.75
76794;BME280;65745;50.278;18.192;2023-07-08T02:06:52;100297.84;;;12.33;72.28
76794;BME280;65745;50.278;18.192;2023-07-08T02:09:25;100297.30;;;12.32;73.19
76794;BME280;65745;50.278;18.192;2023-07-08T02:11:58;100297.77;;;12.30;72.08
76794;BME280;65745;50.278;18.192;2023-07-08T02:14:30;100299.70;;;12.31;72.49
76794;BME280;65745;50.278;18.192;2023-07-08T02:17:02;100302.64;;;12.32;72.85
76794;BME280;65745;50.278;18.192;2023-07-08T02:19:36;100302.47;;;12.32;72.61
76794;BME280;65745;50.278;18.192;2023-07-08T02:22:08;100305.73;;;12.40;71.89
76794;BME280;65745;50.278;18.192;2023-07-08T02:24:41;100306.17;;;12.36;72.85
76794;BME280;65745;50.278;18.192;2023-07-08T02:27:13;100311.44;;;12.22;76.54
76794;BME280;65745;50.278;18.192;2023-07-08T02:29:45;100307.67;;;12.24;73.62
76794;BME280;65745;50.278;18.192;2023-07-08T02:32:17;100307.17;;;12.34;72.53
76794;BME280;65745;50.278;18.192;2023-07-08T02:34:49;100310.09;;;12.42;72.40
76794;BME280;65745;50.278;18.192;2023-07-08T02:37:22;100308.98;;;12.48;72.06
76794;BME280;65745;50.278;18.192;2023-07-08T02:39:55;100310.38;;;12.48;71.65
76794;BME280;65745;50.278;18.192;2023-07-08T02:42:28;100307.74;;;12.46;70.98
76794;BME280;65745;50.278;18.192;2023-07-08T02:45:00;100305.98;;;12.44;71.52
76794;BME280;65745;50.278;18.192;2023-07-08T02:47:33;100307.88;;;12.45;71.76
76794;BME280;65745;50.278;18.192;2023-07-08T02:50:06;100305.76;;;12.42;71.57
76794;BME280;65745;50.278;18.192;2023-07-08T02:52:39;100307.61;;;12.39;71.40
76794;BME280;65745;50.278;18.192;2023-07-08T02:55:11;100305.16;;;12.38;71.49
76794;BME280;65745;50.278;18.192;2023-07-08T02:57:43;100306.03;;;12.38;71.44
76794;BME280;65745;50.278;18.192;2023-07-08T03:00:16;100303.21;;;12.35;72.45
76794;BME280;65745;50.278;18.192;2023-07-08T03:02:48;100305.67;;;12.20;75.81
76794;BME280;65745;50.278;18.192;2023-07-08T03:05:20;100304.30;;;12.11;74.36
76794;BME280;65745;50.278;18.192;2023-07-08T03:07:53;100305.27;;;12.16;73.13
76794;BME280;65745;50.278;18.192;2023-07-08T03:10:25;100306.24;;;12.22;74.77
76794;BME280;65745;50.278;18.192;2023-07-08T03:12:57;100311.41;;;12.21;73.66
76794;BME280;65745;50.278;18.192;2023-07-08T03:15:29;100312.48;;;12.24;73.08
76794;BME280;65745;50.278;18.192;2023-07-08T03:18:01;100312.70;;;12.26;73.32
76794;BME280;65745;50.278;18.192;2023-07-08T03:20:34;100311.33;;;12.26;72.96
76794;BME280;65745;50.278;18.192;2023-07-08T03:23:07;100311.73;;;12.20;72.88
76794;BME280;65745;50.278;18.192;2023-07-08T03:25:39;100311.65;;;12.16;72.77
76794;BME280;65745;50.278;18.192;2023-07-08T03:28:12;100310.84;;;12.18;72.45
76794;BME280;65745;50.278;18.192;2023-07-08T03:30:50;100310.56;;;12.22;72.74
76794;BME280;65745;50.278;18.192;2023-07-08T03:33:23;100312.87;;;12.17;75.07
76794;BME280;65745;50.278;18.192;2023-07-08T03:35:56;100311.76;;;12.13;74.30
76794;BME280;65745;50.278;18.192;2023-07-08T03:38:28;100312.14;;;12.06;75.60
76794;BME280;65745;50.278;18.192;2023-07-08T03:41:00;100311.18;;;12.02;76.02
76794;BME280;65745;50.278;18.192;2023-07-08T03:43:32;100312.59;;;12.03;74.29
76794;BME280;65745;50.278;18.192;2023-07-08T03:46:04;100313.38;;;12.08;74.21
76794;BME280;65745;50.278;18.192;2023-07-08T03:48:36;100310.96;;;12.08;74.77
76794;BME280;65745;50.278;18.192;2023-07-08T03:51:13;100312.73;;;12.10;77.36
76794;BME280;65745;50.278;18.192;2023-07-08T03:53:47;100311.73;;;12.12;76.41
76794;BME280;65745;50.278;18.192;2023-07-08T03:56:20;100312.85;;;12.16;75.86
76794;BME280;65745;50.278;18.192;2023-07-08T03:58:52;100318.02;;;12.23;76.04
76794;BME280;65745;50.278;18.192;2023-07-08T04:01:25;100318.55;;;12.25;76.97
76794;BME280;65745;50.278;18.192;2023-07-08T04:03:59;100317.71;;;12.25;77.20
76794;BME280;65745;50.278;18.192;2023-07-08T04:06:31;100317.52;;;12.24;76.83
76794;BME280;65745;50.278;18.192;2023-07-08T04:09:05;100319.09;;;12.25;77.53
76794;BME280;65745;50.278;18.192;2023-07-08T04:11:37;100321.21;;;12.27;77.45
76794;BME280;65745;50.278;18.192;2023-07-08T04:14:10;100317.66;;;12.31;76.30
76794;BME280;65745;50.278;18.192;2023-07-08T04:16:49;100319.36;;;12.39;76.29
76794;BME280;65745;50.278;18.192;2023-07-08T04:19:22;100320.31;;;12.44;76.93
76794;BME280;65745;50.278;18.192;2023-07-08T04:21:55;100316.07;;;12.49;76.99
76794;BME280;65745;50.278;18.192;2023-07-08T04:24:27;100309.29;;;12.55;77.07
76794;BME280;65745;50.278;18.192;2023-07-08T04:26:59;100308.52;;;12.60;77.76
76794;BME280;65745;50.278;18.192;2023-07-08T04:29:31;100314.16;;;12.66;76.37
76794;BME280;65745;50.278;18.192;2023-07-08T04:32:04;100311.02;;;12.73;76.31
76794;BME280;65745;50.278;18.192;2023-07-08T04:34:36;100308.56;;;12.82;76.70
76794;BME280;65745;50.278;18.192;2023-07-08T04:37:09;100310.80;;;12.91;77.24
76794;BME280;65745;50.278;18.192;2023-07-08T04:39:42;100304.91;;;13.01;76.94
76794;BME280;65745;50.278;18.192;2023-07-08T04:42:15;100310.46;;;13.11;76.65
76794;BME280;65745;50.278;18.192;2023-07-08T04:44:48;100304.98;;;13.25;75.87
76794;BME280;65745;50.278;18.192;2023-07-08T04:47:20;100302.41;;;13.39;75.92
76794;BME280;65745;50.278;18.192;2023-07-08T04:49:52;100302.27;;;13.52;75.88
76794;BME280;65745;50.278;18.192;2023-07-08T04:52:24;100302.33;;;13.67;75.40
76794;BME280;65745;50.278;18.192;2023-07-08T04:54:56;100306.69;;;13.82;77.16
76794;BME280;65745;50.278;18.192;2023-07-08T04:57:28;100309.64;;;13.96;75.56
76794;BME280;65745;50.278;18.192;2023-07-08T05:00:00;100311.20;;;14.10;75.38
76794;BME280;65745;50.278;18.192;2023-07-08T05:02:33;100308.08;;;14.25;75.05
76794;BME280;65745;50.278;18.192;2023-07-08T05:05:06;100305.10;;;14.36;75.54
76794;BME280;65745;50.278;18.192;2023-07-08T05:07:39;100297.98;;;14.48;75.19
76794;BME280;65745;50.278;18.192;2023-07-08T05:10:11;100297.77;;;14.63;74.90
76794;BME280;65745;50.278;18.192;2023-07-08T05:12:43;100294.63;;;14.79;74.38
76794;BME280;65745;50.278;18.192;2023-07-08T05:15:16;100296.98;;;14.89;74.61
76794;BME280;65745;50.278;18.192;2023-07-08T05:17:49;100296.23;;;15.03;74.62
76794;BME280;65745;50.278;18.192;2023-07-08T05:20:22;100294.78;;;15.18;74.98
76794;BME280;65745;50.278;18.192;2023-07-08T05:22:54;100298.52;;;15.32;74.25
76794;BME280;65745;50.278;18.192;2023-07-08T05:25:26;100299.48;;;15.45;73.97
76794;BME280;65745;50.278;18.192;2023-07-08T05:27:58;100299.95;;;15.58;73.62
76794;BME280;65745;50.278;18.192;2023-07-08T05:30:31;100302.30;;;15.72;73.36
76794;BME280;65745;50.278;18.192;2023-07-08T05:33:03;100300.98;;;15.86;73.25
76794;BME280;65745;50.278;18.192;2023-07-08T05:35:35;100297.23;;;16.02;72.73
76794;BME280;65745;50.278;18.192;2023-07-08T05:38:07;100297.27;;;16.14;72.61
76794;BME280;65745;50.278;18.192;2023-07-08T05:40:39;100292.45;;;16.26;72.64
76794;BME280;65745;50.278;18.192;2023-07-08T05:43:11;100291.63;;;16.39;72.40
76794;BME280;65745;50.278;18.192;2023-07-08T05:45:43;100292.52;;;16.54;71.92
76794;BME280;65745;50.278;18.192;2023-07-08T05:48:31;100289.27;;;16.74;71.89
76794;BME280;65745;50.278;18.192;2023-07-08T05:51:03;100290.69;;;16.88;71.43
76794;BME280;65745;50.278;18.192;2023-07-08T05:53:35;100289.64;;;17.02;71.14
76794;BME280;65745;50.278;18.192;2023-07-08T05:56:07;100288.77;;;17.13;70.63
76794;BME280;65745;50.278;18.192;2023-07-08T05:58:39;100293.29;;;17.31;70.34
76794;BME280;65745;50.278;18.192;2023-07-08T06:01:11;100292.73;;;17.51;69.94
76794;BME280;65745;50.278;18.192;2023-07-08T06:03:43;100294.46;;;17.71;69.26
76794;BME280;65745;50.278;18.192;2023-07-08T06:06:15;100299.09;;;17.92;69.05
76794;BME280;65745;50.278;18.192;2023-07-08T06:08:47;100298.15;;;18.10;68.25
76794;BME280;65745;50.278;18.192;2023-07-08T06:11:20;100300.17;;;18.26;68.15
76794;BME280;65745;50.278;18.192;2023-07-08T06:13:52;100303.92;;;18.41;67.83
76794;BME280;65745;50.278;18.192;2023-07-08T06:16:24;100301.27;;;18.49;67.27
76794;BME280;65745;50.278;18.192;2023-07-08T06:19:10;100301.05;;;18.61;66.81
76794;BME280;65745;50.278;18.192;2023-07-08T06:21:43;100302.15;;;18.80;66.49
76794;BME280;65745;50.278;18.192;2023-07-08T06:24:15;100296.94;;;18.99;66.41
76794;BME280;65745;50.278;18.192;2023-07-08T06:26:47;100301.11;;;19.23;65.96
76794;BME280;65745;50.278;18.192;2023-07-08T06:29:23;100301.98;;;19.41;65.02
76794;BME280;65745;50.278;18.192;2023-07-08T06:31:56;100298.55;;;19.56;64.96
76794;BME280;65745;50.278;18.192;2023-07-08T06:34:28;100296.48;;;19.70;64.54
76794;BME280;65745;50.278;18.192;2023-07-08T06:37:00;100295.40;;;19.87;64.46
76794;BME280;65745;50.278;18.192;2023-07-08T06:39:32;100298.41;;;19.99;63.78
76794;BME280;65745;50.278;18.192;2023-07-08T06:42:06;100298.73;;;20.16;63.60
76794;BME280;65745;50.278;18.192;2023-07-08T06:44:42;100301.36;;;20.29;62.97
76794;BME280;65745;50.278;18.192;2023-07-08T06:47:23;100303.70;;;20.40;62.34
76794;BME280;65745;50.278;18.192;2023-07-08T06:49:56;100297.57;;;20.53;62.17
76794;BME280;65745;50.278;18.192;2023-07-08T06:52:29;100298.73;;;20.68;61.48
76794;BME280;65745;50.278;18.192;2023-07-08T06:55:09;100297.86;;;20.91;61.41
76794;BME280;65745;50.278;18.192;2023-07-08T06:57:41;100298.43;;;21.09;60.87
76794;BME280;65745;50.278;18.192;2023-07-08T07:00:14;100299.41;;;21.26;60.43
76794;BME280;65745;50.278;18.192;2023-07-08T07:02:46;100298.77;;;21.43;59.60
76794;BME280;65745;50.278;18.192;2023-07-08T07:05:18;100295.22;;;21.54;59.62
76794;BME280;65745;50.278;18.192;2023-07-08T07:07:53;100296.67;;;21.71;58.86
76794;BME280;65745;50.278;18.192;2023-07-08T07:10:25;100297.83;;;21.83;58.72
76794;BME280;65745;50.278;18.192;2023-07-08T07:12:57;100304.39;;;21.98;58.41
76794;BME280;65745;50.278;18.192;2023-07-08T07:15:29;100308.94;;;22.16;57.98
76794;BME280;65745;50.278;18.192;2023-07-08T07:18:03;100308.19;;;22.27;57.22
76794;BME280;65745;50.278;18.192;2023-07-08T07:20:37;100305.05;;;22.33;56.95
76794;BME280;65745;50.278;18.192;2023-07-08T07:23:09;100299.63;;;22.49;56.71
76794;BME280;65745;50.278;18.192;2023-07-08T07:25:41;100297.70;;;22.64;56.18
76794;BME280;65745;50.278;18.192;2023-07-08T07:28:16;100295.96;;;22.71;56.08
76794;BME280;65745;50.278;18.192;2023-07-08T07:30:57;100300.98;;;22.83;55.24
76794;BME280;65745;50.278;18.192;2023-07-08T07:33:30;100299.35;;;22.92;55.04
76794;BME280;65745;50.278;18.192;2023-07-08T07:36:03;100298.70;;;23.05;55.27
76794;BME280;65745;50.278;18.192;2023-07-08T07:38:35;100304.63;;;23.27;54.51
76794;BME280;65745;50.278;18.192;2023-07-08T07:41:08;100303.86;;;23.44;53.34
76794;BME280;65745;50.278;18.192;2023-07-08T07:43:41;100300.58;;;23.55;52.54
76794;BME280;65745;50.278;18.192;2023-07-08T07:46:13;100299.23;;;23.65;52.36
76794;BME280;65745;50.278;18.192;2023-07-08T07:48:45;100299.14;;;23.82;51.49
76794;BME280;65745;50.278;18.192;2023-07-08T07:51:17;100296.23;;;23.91;50.96
76794;BME280;65745;50.278;18.192;2023-07-08T07:53:49;100297.30;;;24.03;50.16
76794;BME280;65745;50.278;18.192;2023-07-08T07:56:22;100300.30;;;24.22;49.93
76794;BME280;65745;50.278;18.192;2023-07-08T07:58:56;100304.46;;;24.36;50.17
76794;BME280;65745;50.278;18.192;2023-07-08T08:01:28;100301.70;;;24.51;49.20
76794;BME280;65745;50.278;18.192;2023-07-08T08:04:00;100304.97;;;24.71;48.66
76794;BME280;65745;50.278;18.192;2023-07-08T08:06:32;100302.20;;;24.85;47.40
76794;BME280;65745;50.278;18.192;2023-07-08T08:09:05;100300.38;;;24.94;46.48
76794;BME280;65745;50.278;18.192;2023-07-08T08:11:38;100299.59;;;25.07;45.34
76794;BME280;65745;50.278;18.192;2023-07-08T08:14:10;100295.72;;;25.22;45.44
76794;BME280;65745;50.278;18.192;2023-07-08T08:16:42;100299.52;;;25.40;45.19
76794;BME280;65745;50.278;18.192;2023-07-08T08:19:14;100302.12;;;25.52;44.23
76794;BME280;65745;50.278;18.192;2023-07-08T08:21:46;100300.55;;;25.67;42.64
76794;BME280;65745;50.278;18.192;2023-07-08T08:24:19;100299.15;;;25.76;42.46
76794;BME280;65745;50.278;18.192;2023-07-08T08:26:51;100298.14;;;25.85;41.45
76794;BME280;65745;50.278;18.192;2023-07-08T08:29:23;100298.00;;;25.93;40.47
76794;BME280;65745;50.278;18.192;2023-07-08T08:31:55;100294.48;;;26.07;39.78
76794;BME280;65745;50.278;18.192;2023-07-08T08:34:27;100293.17;;;26.18;39.59
76794;BME280;65745;50.278;18.192;2023-07-08T08:36:59;100292.48;;;26.28;38.84
76794;BME280;65745;50.278;18.192;2023-07-08T08:39:31;100289.58;;;26.43;38.83
76794;BME280;65745;50.278;18.192;2023-07-08T08:42:04;100284.79;;;26.57;38.34
76794;BME280;65745;50.278;18.192;2023-07-08T08:44:36;100283.28;;;26.73;37.66
76794;BME280;65745;50.278;18.192;2023-07-08T08:47:15;100278.48;;;26.87;34.24
76794;BME280;65745;50.278;18.192;2023-07-08T08:50:00;100276.29;;;27.02;33.88
76794;BME280;65745;50.278;18.192;2023-07-08T08:52:33;100273.67;;;27.22;33.35
76794;BME280;65745;50.278;18.192;2023-07-08T08:55:13;100277.11;;;27.36;32.50
76794;BME280;65745;50.278;18.192;2023-07-08T08:57:49;100269.25;;;27.47;32.18
76794;BME280;65745;50.278;18.192;2023-07-08T09:00:28;100268.52;;;27.64;32.51
76794;BME280;65745;50.278;18.192;2023-07-08T09:03:06;100266.34;;;27.88;33.15
76794;BME280;65745;50.278;18.192;2023-07-08T09:05:40;100260.77;;;27.94;31.21
76794;BME280;65745;50.278;18.192;2023-07-08T09:08:16;100264.42;;;27.99;31.51
76794;BME280;65745;50.278;18.192;2023-07-08T09:10:53;100269.07;;;28.18;32.08
76794;BME280;65745;50.278;18.192;2023-07-08T09:13:32;100269.52;;;28.20;30.96
76794;BME280;65745;50.278;18.192;2023-07-08T09:16:07;100267.15;;;28.33;30.84
76794;BME280;65745;50.278;18.192;2023-07-08T09:18:45;100260.74;;;28.36;30.92
76794;BME280;65745;50.278;18.192;2023-07-08T09:21:25;100261.18;;;28.60;30.86
76794;BME280;65745;50.278;18.192;2023-07-08T09:24:02;100258.45;;;28.77;30.54
76794;BME280;65745;50.278;18.192;2023-07-08T09:26:37;100254.02;;;28.95;29.22
76794;BME280;65745;50.278;18.192;2023-07-08T09:29:11;100251.70;;;29.44;30.28
76794;BME280;65745;50.278;18.192;2023-07-08T09:31:43;100252.90;;;29.75;29.25
76794;BME280;65745;50.278;18.192;2023-07-08T09:34:17;100251.25;;;29.96;30.19
76794;BME280;65745;50.278;18.192;2023-07-08T09:36:51;100250.08;;;30.07;29.28
76794;BME280;65745;50.278;18.192;2023-07-08T09:39:23;100247.85;;;30.28;29.56
76794;BME280;65745;50.278;18.192;2023-07-08T09:41:55;100242.19;;;30.43;28.10
76794;BME280;65745;50.278;18.192;2023-07-08T09:44:28;100245.66;;;30.54;28.03
76794;BME280;65745;50.278;18.192;2023-07-08T09:47:01;100235.88;;;30.61;27.22
76794;BME280;65745;50.278;18.192;2023-07-08T09:49:35;100237.17;;;30.69;26.79
76794;BME280;65745;50.278;18.192;2023-07-08T09:52:11;100239.09;;;30.79;27.22
76794;BME280;65745;50.278;18.192;2023-07-08T09:54:44;100239.73;;;30.93;27.13
76794;BME280;65745;50.278;18.192;2023-07-08T09:57:25;100242.24;;;31.01;27.45
76794;BME280;65745;50.278;18.192;2023-07-08T10:00:02;100238.94;;;31.09;26.50
76794;BME280;65745;50.278;18.192;2023-07-08T10:02:41;100236.64;;;31.21;26.78
76794;BME280;65745;50.278;18.192;2023-07-08T10:05:19;100228.27;;;31.21;25.62
76794;BME280;65745;50.278;18.192;2023-07-08T10:07:54;100224.86;;;31.36;25.70
76794;BME280;65745;50.278;18.192;2023-07-08T10:10:31;100226.31;;;31.52;25.36
76794;BME280;65745;50.278;18.192;2023-07-08T10:13:21;100219.30;;;31.72;24.84
76794;BME280;65745;50.278;18.192;2023-07-08T10:15:58;100225.12;;;31.84;25.64
76794;BME280;65745;50.278;18.192;2023-07-08T10:18:33;100218.39;;;31.80;24.71
76794;BME280;65745;50.278;18.192;2023-07-08T10:21:12;100213.06;;;31.88;24.65
76794;BME280;65745;50.278;18.192;2023-07-08T10:24:04;100208.77;;;32.00;24.43
76794;BME280;65745;50.278;18.192;2023-07-08T10:26:44;100211.17;;;31.87;24.04
76794;BME280;65745;50.278;18.192;2023-07-08T10:29:24;100211.09;;;31.72;23.81
76794;BME280;65745;50.278;18.192;2023-07-08T10:32:07;100213.86;;;31.90;24.10
76794;BME280;65745;50.278;18.192;2023-07-08T10:34:47;100215.45;;;31.96;23.12
76794;BME280;65745;50.278;18.192;2023-07-08T10:37:32;100213.23;;;32.03;23.02
76794;BME280;65745;50.278;18.192;2023-07-08T10:40:30;100209.00;;;32.24;21.86
76794;BME280;65745;50.278;18.192;2023-07-08T10:43:21;100201.32;;;32.73;23.42
76794;BME280;65745;50.278;18.192;2023-07-08T10:46:09;100205.08;;;33.07;23.30
76794;BME280;65745;50.278;18.192;2023-07-08T10:49:06;100202.09;;;33.22;22.60
76794;BME280;65745;50.278;18.192;2023-07-08T10:51:51;100198.43;;;33.26;22.94
76794;BME280;65745;50.278;18.192;2023-07-08T10:54:55;100197.30;;;33.32;22.96
76794;BME280;65745;50.278;18.192;2023-07-08T10:58:03;100194.41;;;33.33;23.55
76794;BME280;65745;50.278;18.192;2023-07-08T11:00:56;100189.93;;;33.38;23.08
76794;BME280;65745;50.278;18.192;2023-07-08T11:03:58;100186.38;;;33.38;22.31
76794;BME280;65745;50.278;18.192;2023-07-08T11:06:43;100184.38;;;33.58;22.06
76794;BME280;65745;50.278;18.192;2023-07-08T11:09:21;100180.31;;;33.85;21.87
76794;BME280;65745;50.278;18.192;2023-07-08T11:12:00;100175.77;;;33.89;21.77
76794;BME280;65745;50.278;18.192;2023-07-08T11:14:41;100178.57;;;33.94;21.20
76794;BME280;65745;50.278;18.192;2023-07-08T11:17:18;100177.92;;;34.10;20.81
76794;BME280;65745;50.278;18.192;2023-07-08T11:19:57;100172.33;;;34.31;20.72
76794;BME280;65745;50.278;18.192;2023-07-08T11:22:33;100180.13;;;34.53;21.67
76794;BME280;65745;50.278;18.192;2023-07-08T11:25:13;100176.54;;;34.49;21.17
76794;BME280;65745;50.278;18.192;2023-07-08T11:27:50;100175.05;;;34.35;20.82
76794;BME280;65745;50.278;18.192;2023-07-08T11:30:25;100165.61;;;34.44;21.01
76794;BME280;65745;50.278;18.192;2023-07-08T11:33:02;100161.23;;;34.62;20.23
76794;BME280;65745;50.278;18.192;2023-07-08T11:35:40;100160.99;;;34.93;19.68
76794;BME280;65745;50.278;18.192;2023-07-08T11:38:14;100163.20;;;34.92;20.09
76794;BME280;65745;50.278;18.192;2023-07-08T11:40:56;100170.05;;;34.87;19.03
76794;BME280;65745;50.278;18.192;2023-07-08T11:43:37;100162.95;;;34.84;17.86
76794;BME280;65745;50.278;18.192;2023-07-08T11:46:17;100163.02;;;35.00;17.63
76794;BME280;65745;50.278;18.192;2023-07-08T11:48:52;100159.89;;;35.12;18.35
76794;BME280;65745;50.278;18.192;2023-07-08T11:51:27;100154.43;;;35.25;17.78
76794;BME280;65745;50.278;18.192;2023-07-08T11:54:09;100156.72;;;35.41;19.90
76794;BME280;65745;50.278;18.192;2023-07-08T11:56:57;100156.53;;;35.48;19.56
76794;BME280;65745;50.278;18.192;2023-07-08T11:59:33;100155.95;;;35.46;18.74
76794;BME280;65745;50.278;18.192;2023-07-08T12:02:14;100151.20;;;35.54;18.92
76794;BME280;65745;50.278;18.192;2023-07-08T12:04:58;100148.41;;;35.71;19.36
76794;BME280;65745;50.278;18.192;2023-07-08T12:07:40;100147.45;;;35.76;18.71
76794;BME280;65745;50.278;18.192;2023-07-08T12:10:17;100144.73;;;35.75;18.31
76794;BME280;65745;50.278;18.192;2023-07-08T12:12:50;100144.87;;;35.82;18.81
76794;BME280;65745;50.278;18.192;2023-07-08T12:15:25;100141.56;;;35.72;17.55
76794;BME280;65745;50.278;18.192;2023-07-08T12:18:01;100139.15;;;35.90;18.06
76794;BME280;65745;50.278;18.192;2023-07-08T12:20:37;100133.47;;;36.03;17.70
76794;BME280;65745;50.278;18.192;2023-07-08T12:23:13;100129.02;;;36.22;17.70
76794;BME280;65745;50.278;18.192;2023-07-08T12:25:46;100127.41;;;36.75;17.38
76794;BME280;65745;50.278;18.192;2023-07-08T12:28:19;100129.67;;;37.09;17.94
76794;BME280;65745;50.278;18.192;2023-07-08T12:30:52;100128.86;;;37.02;17.92
76794;BME280;65745;50.278;18.192;2023-07-08T12:33:28;100124.69;;;37.07;17.27
76794;BME280;65745;50.278;18.192;2023-07-08T12:36:01;100122.73;;;37.06;17.29
76794;BME280;65745;50.278;18.192;2023-07-08T12:38:37;100120.08;;;36.89;17.58
76794;BME280;65745;50.278;18.192;2023-07-08T12:41:14;100117.58;;;36.93;16.88
76794;BME280;65745;50.278;18.192;2023-07-08T12:43:48;100111.60;;;37.31;16.80
76794;BME280;65745;50.278;18.192;2023-07-08T12:46:21;100110.93;;;37.53;17.17
76794;BME280;65745;50.278;18.192;2023-07-08T12:48:54;100110.79;;;37.59;16.88
76794;BME280;65745;50.278;18.192;2023-07-08T12:51:28;100107.14;;;37.59;15.66
76794;BME280;65745;50.278;18.192;2023-07-08T12:54:00;100105.95;;;37.68;16.07
76794;BME280;65745;50.278;18.192;2023-07-08T12:56:32;100105.95;;;37.56;15.05
76794;BME280;65745;50.278;18.192;2023-07-08T12:59:07;100095.88;;;37.70;14.66
76794;BME280;65745;50.278;18.192;2023-07-08T13:01:41;100093.37;;;37.88;16.02
76794;BME280;65745;50.278;18.192;2023-07-08T13:04:14;100092.60;;;37.82;15.23
76794;BME280;65745;50.278;18.192;2023-07-08T13:06:47;100092.63;;;37.88;14.04
76794;BME280;65745;50.278;18.192;2023-07-08T13:09:35;100090.61;;;37.95;14.34
76794;BME280;65745;50.278;18.192;2023-07-08T13:12:15;100092.05;;;37.86;14.93
76794;BME280;65745;50.278;18.192;2023-07-08T13:14:48;100083.23;;;37.91;14.29
76794;BME280;65745;50.278;18.192;2023-07-08T13:17:20;100084.76;;;38.11;13.76
76794;BME280;65745;50.278;18.192;2023-07-08T13:19:53;100085.29;;;38.37;14.03